Time,TemperatureF,DewpointF,PressureIn,WindDirection,WindDirectionDegrees,WindSpeedMPH,WindSpeedGustMPH,Humidity,HourlyPrecipIn,Conditions,Clouds,dailyrainin,SoftwareType,DateUTC
2013-05-03 00:11:00,72.0,39.0,29.45,ENE,63,5.0,-999.0,31,-99.99,,,0.00,,2013-05-03 07:11:00,
2013-05-03 00:21:00,72.0,39.0,29.45,ENE,63,5.0,-999.0,31,-99.99,,,0.00,,2013-05-03 07:21:00,
2013-05-03 00:31:00,72.0,39.0,29.45,ENE,63,5.0,-999.0,31,-99.99,,,0.00,,2013-05-03 07:31:00,
2013-05-03 00:42:00,72.0,39.0,29.45,ENE,63,5.0,-999.0,31,-99.99,,,0.00,,2013-05-03 07:42:00,
2013-05-03 01:11:00,70.0,40.0,29.45,West,272,5.0,-999.0,33,0.00,,,0.00,,2013-05-03 08:11:00,
2013-05-03 01:21:00,70.0,40.0,29.45,West,272,5.0,-999.0,33,0.00,,,0.00,,2013-05-03 08:21:00,
2013-05-03 01:31:00,70.0,40.0,29.45,West,272,5.0,-999.0,33,0.00,,,0.00,,2013-05-03 08:31:00,
2013-05-03 01:42:00,70.0,40.0,29.45,West,272,5.0,-999.0,33,0.00,,,0.00,,2013-05-03 08:42:00,
2013-05-03 02:11:00,69.0,40.0,29.44,South,188,4.0,-999.0,35,0.00,,,0.00,,2013-05-03 09:11:00,
2013-05-03 02:21:00,69.0,40.0,29.44,South,188,4.0,-999.0,35,0.00,,,0.00,,2013-05-03 09:21:00,
2013-05-03 02:32:00,69.0,40.0,29.44,South,188,4.0,-999.0,35,0.00,,,0.00,,2013-05-03 09:32:00,
2013-05-03 02:42:00,69.0,40.0,29.44,South,188,4.0,-999.0,35,0.00,,,0.00,,2013-05-03 09:42:00,
2013-05-03 03:12:00,68.0,40.0,29.43,NNE,23,8.0,-999.0,37,0.00,,,0.00,,2013-05-03 10:12:00,
2013-05-03 03:22:00,68.0,40.0,29.43,NNE,23,8.0,-999.0,37,0.00,,,0.00,,2013-05-03 10:22:00,
2013-05-03 03:32:00,68.0,40.0,29.43,NNE,23,8.0,-999.0,37,0.00,,,0.00,,2013-05-03 10:32:00,
2013-05-03 03:42:00,68.0,40.0,29.43,NNE,23,8.0,-999.0,37,0.00,,,0.00,,2013-05-03 10:42:00,
2013-05-03 04:11:00,66.0,40.0,29.42,North,355,9.0,-999.0,39,0.00,,,0.00,,2013-05-03 11:11:00,
2013-05-03 04:22:00,66.0,40.0,29.42,North,355,9.0,-999.0,39,0.00,,,0.00,,2013-05-03 11:22:00,
2013-05-03 04:31:00,66.0,40.0,29.42,North,355,9.0,-999.0,39,0.00,,,0.00,,2013-05-03 11:31:00,
2013-05-03 04:42:00,66.0,40.0,29.42,North,355,9.0,-999.0,39,0.00,,,0.00,,2013-05-03 11:42:00,
2013-05-03 05:11:00,65.0,41.0,29.41,North,-999,-999.0,-999.0,42,0.00,,,0.00,,2013-05-03 12:11:00,
2013-05-03 05:21:00,65.0,41.0,29.41,North,-999,-999.0,-999.0,42,0.00,,,0.00,,2013-05-03 12:21:00,
2013-05-03 05:32:00,65.0,41.0,29.41,North,-999,-999.0,-999.0,42,0.00,,,0.00,,2013-05-03 12:32:00,
2013-05-03 05:41:00,65.0,41.0,29.41,North,-999,-999.0,-999.0,42,0.00,,,0.00,,2013-05-03 12:41:00,
2013-05-03 06:11:00,65.0,40.0,29.41,NNW,336,2.0,-999.0,40,0.00,,,-99.99,,2013-05-03 13:11:00,
2013-05-03 06:22:00,65.0,40.0,29.41,NNW,336,2.0,-999.0,40,0.00,,,-99.99,,2013-05-03 13:22:00,
2013-05-03 06:32:00,65.0,40.0,29.41,NNW,336,2.0,-999.0,40,0.00,,,-99.99,,2013-05-03 13:32:00,
2013-05-03 06:42:00,65.0,40.0,29.41,NNW,336,2.0,-999.0,40,0.00,,,-99.99,,2013-05-03 13:42:00,
2013-05-03 07:11:00,64.0,41.0,29.41,North,10,9.0,-999.0,43,0.00,,,0.00,,2013-05-03 14:11:00,
2013-05-03 07:21:00,64.0,41.0,29.41,North,10,9.0,-999.0,43,0.00,,,0.00,,2013-05-03 14:21:00,
2013-05-03 07:32:00,64.0,41.0,29.41,North,10,9.0,-999.0,43,0.00,,,0.00,,2013-05-03 14:32:00,
2013-05-03 07:42:00,64.0,41.0,29.41,North,10,9.0,-999.0,43,0.00,,,0.00,,2013-05-03 14:42:00,
2013-05-03 08:11:00,69.0,41.0,29.40,NE,34,4.0,-999.0,36,0.00,,,0.00,,2013-05-03 15:11:00,
2013-05-03 08:22:00,69.0,41.0,29.40,NE,34,4.0,-999.0,36,0.00,,,0.00,,2013-05-03 15:22:00,
2013-05-03 08:32:00,69.0,41.0,29.40,NE,34,4.0,-999.0,36,0.00,,,0.00,,2013-05-03 15:32:00,
2013-05-03 08:43:00,69.0,41.0,29.40,NE,34,4.0,-999.0,36,0.00,,,0.00,,2013-05-03 15:43:00,
2013-05-03 10:12:00,81.0,33.0,29.37,SSW,207,3.0,-999.0,18,-99.99,,,0.00,,2013-05-03 17:12:00,
2013-05-03 11:12:00,85.0,31.0,29.36,WNW,297,8.0,-999.0,14,0.00,,,0.00,,2013-05-03 18:12:00,
2013-05-03 11:21:00,85.0,31.0,29.36,WNW,297,8.0,-999.0,14,0.00,,,0.00,,2013-05-03 18:21:00,
2013-05-03 12:11:00,86.0,33.0,29.34,WNW,293,4.0,-999.0,15,0.01,,,0.01,,2013-05-03 19:11:00,
2013-05-03 13:11:00,89.0,33.0,29.31,WNW,299,4.0,-999.0,14,0.00,,,0.00,,2013-05-03 20:11:00,
2013-05-03 13:21:00,89.0,33.0,29.31,WNW,299,4.0,-999.0,14,0.00,,,0.00,,2013-05-03 20:21:00,
2013-05-03 14:11:00,90.0,34.0,29.28,WSW,248,6.0,-999.0,14,0.00,,,0.00,,2013-05-03 21:11:00,
2013-05-03 14:21:00,90.0,34.0,29.28,WSW,248,6.0,-999.0,14,0.00,,,0.00,,2013-05-03 21:21:00,
2013-05-03 15:12:00,93.0,37.0,29.26,West,273,3.0,-999.0,14,0.00,,,0.00,,2013-05-03 22:12:00,
2013-05-03 15:22:00,93.0,37.0,29.26,West,273,3.0,-999.0,14,0.00,,,0.00,,2013-05-03 22:22:00,
2013-05-03 15:32:00,93.0,37.0,29.26,West,273,3.0,-999.0,14,0.00,,,0.00,,2013-05-03 22:32:00,
2013-05-03 15:42:00,93.0,37.0,29.26,West,273,3.0,-999.0,14,0.00,,,0.00,,2013-05-03 22:42:00,
2013-05-03 17:11:00,94.0,38.0,29.20,WNW,289,4.0,-999.0,14,-99.99,,,0.00,,2013-05-04 00:11:00,
2013-05-03 17:22:00,94.0,38.0,29.20,WNW,289,4.0,-999.0,14,-99.99,,,0.00,,2013-05-04 00:22:00,
2013-05-03 17:31:00,94.0,38.0,29.20,WNW,289,4.0,-999.0,14,-99.99,,,0.00,,2013-05-04 00:31:00,
2013-05-03 17:41:00,94.0,38.0,29.20,WNW,289,4.0,-999.0,14,-99.99,,,0.00,,2013-05-04 00:41:00,
2013-05-03 18:11:00,91.0,35.0,29.18,WSW,240,5.0,-999.0,14,0.00,,,0.00,,2013-05-04 01:11:00,
2013-05-03 18:41:00,91.0,35.0,29.18,WSW,240,5.0,-999.0,14,0.00,,,0.00,,2013-05-04 01:41:00,
2013-05-03 19:11:00,90.0,38.0,29.17,WSW,257,2.0,-999.0,16,0.00,,,-99.99,,2013-05-04 02:11:00,
2013-05-03 19:21:00,90.0,38.0,29.17,WSW,257,2.0,-999.0,16,0.00,,,-99.99,,2013-05-04 02:21:00,
2013-05-03 19:32:00,90.0,38.0,29.17,WSW,257,2.0,-999.0,16,0.00,,,-99.99,,2013-05-04 02:32:00,
2013-05-03 19:41:00,90.0,38.0,29.17,WSW,257,2.0,-999.0,16,0.00,,,-99.99,,2013-05-04 02:41:00,
2013-05-03 20:11:00,85.0,32.0,29.17,South,178,3.0,-999.0,15,0.00,,,0.00,,2013-05-04 03:11:00,
2013-05-03 21:12:00,81.0,42.0,29.17,ESE,108,5.0,-999.0,25,0.00,,,0.00,,2013-05-04 04:12:00,
2013-05-03 21:22:00,81.0,42.0,29.17,ESE,108,5.0,-999.0,25,0.00,,,0.00,,2013-05-04 04:22:00,
2013-05-03 21:32:00,81.0,42.0,29.17,ESE,108,5.0,-999.0,25,0.00,,,0.00,,2013-05-04 04:32:00,
2013-05-03 21:42:00,81.0,42.0,29.17,ESE,108,5.0,-999.0,25,0.00,,,0.00,,2013-05-04 04:42:00,
2013-05-03 22:11:00,79.0,44.0,29.18,SSW,195,3.0,-999.0,29,0.00,,,-99.99,,2013-05-04 05:11:00,
2013-05-03 22:22:00,79.0,44.0,29.18,SSW,195,3.0,-999.0,29,0.00,,,-99.99,,2013-05-04 05:22:00,
2013-05-03 22:32:00,79.0,44.0,29.18,SSW,195,3.0,-999.0,29,0.00,,,-99.99,,2013-05-04 05:32:00,
2013-05-03 22:42:00,79.0,44.0,29.18,SSW,195,3.0,-999.0,29,0.00,,,-99.99,,2013-05-04 05:42:00,
2013-05-03 23:11:00,76.0,44.0,29.18,NNW,331,4.0,-999.0,32,0.00,,,0.00,,2013-05-04 06:11:00,
2013-05-03 23:21:00,76.0,44.0,29.18,NNW,331,4.0,-999.0,32,0.00,,,0.00,,2013-05-04 06:21:00,
2013-05-03 23:32:00,76.0,44.0,29.18,NNW,331,4.0,-999.0,32,0.00,,,0.00,,2013-05-04 06:32:00,
2013-05-03 23:41:00,76.0,44.0,29.18,NNW,331,4.0,-999.0,32,0.00,,,0.00,,2013-05-04 06:41:00,